<?xml version="1.0" encoding="UTF-8" standalone="no" ?>
<gpx xmlns="http://www.topografix.com/GPX/1/1" xmlns:xsi="http://www.w3.org/2001/XMLSchema-instance" xsi:schemaLocation="http://www.topografix.com/GPX/1/1 http://www.topografix.com/GPX/1/1/gpx.xsd" version="1.1" creator="VisuGPX - https://www.visugpx.com">
  <metadata>
    <name>BelleIsleEnTerre_Court14-16km</name>
    <desc><![CDATA[gnerando idor: 9560775_9560935]]></desc>
  </metadata>
  <trk>
    <name><![CDATA[BIET_CourtF_15.6km-9560935]]></name>
    <extensions>
      <line xmlns="http://www.topografix.com/GPX/gpx_style/0/2">
        <color>00FF00</color>
        <width>4</width>
      </line>
    </extensions>
    <trkseg>
      <trkpt lat="48.54652" lon="-3.39668">
        <ele>90</ele>
        <time>2023-10-30T16:43:35Z</time>
      </trkpt>
      <trkpt lat="48.54619" lon="-3.39583">
        <ele>91</ele>
        <time>2023-10-30T16:45:02Z</time>
      </trkpt>
      <trkpt lat="48.54588" lon="-3.39579">
        <ele>90</ele>
        <time>2023-10-30T16:45:44Z</time>
      </trkpt>
      <trkpt lat="48.54527" lon="-3.39571">
        <ele>93</ele>
        <time>2023-10-30T16:47:05Z</time>
      </trkpt>
      <trkpt lat="48.54525" lon="-3.39593">
        <ele>93</ele>
        <time>2023-10-30T16:47:25Z</time>
      </trkpt>
      <trkpt lat="48.54471" lon="-3.39588">
        <ele>94</ele>
        <time>2023-10-30T16:48:37Z</time>
      </trkpt>
      <trkpt lat="48.54461" lon="-3.39612">
        <ele>94</ele>
        <time>2023-10-30T16:49:02Z</time>
      </trkpt>
      <trkpt lat="48.54416" lon="-3.39618">
        <ele>94</ele>
        <time>2023-10-30T16:50:02Z</time>
      </trkpt>
      <trkpt lat="48.54414" lon="-3.39764">
        <ele>95</ele>
        <time>2023-10-30T16:52:11Z</time>
      </trkpt>
      <trkpt lat="48.54344" lon="-3.39769">
        <ele>97</ele>
        <time>2023-10-30T16:53:45Z</time>
      </trkpt>
      <trkpt lat="48.54321" lon="-3.39761">
        <ele>97</ele>
        <time>2023-10-30T16:54:16Z</time>
      </trkpt>
      <trkpt lat="48.54262" lon="-3.39802">
        <ele>101</ele>
        <time>2023-10-30T16:55:43Z</time>
      </trkpt>
      <trkpt lat="48.54203" lon="-3.39809">
        <ele>103</ele>
        <time>2023-10-30T16:57:02Z</time>
      </trkpt>
      <trkpt lat="48.54109" lon="-3.39793">
        <ele>104</ele>
        <time>2023-10-30T16:59:08Z</time>
      </trkpt>
      <trkpt lat="48.54059" lon="-3.39807">
        <ele>105</ele>
        <time>2023-10-30T17:00:16Z</time>
      </trkpt>
      <trkpt lat="48.54002" lon="-3.39796">
        <ele>103</ele>
        <time>2023-10-30T17:01:33Z</time>
      </trkpt>
      <trkpt lat="48.53959" lon="-3.3982">
        <ele>103</ele>
        <time>2023-10-30T17:02:34Z</time>
      </trkpt>
      <trkpt lat="48.53933" lon="-3.3986">
        <ele>104</ele>
        <time>2023-10-30T17:03:24Z</time>
      </trkpt>
      <trkpt lat="48.53878" lon="-3.39971">
        <ele>115</ele>
        <time>2023-10-30T17:05:26Z</time>
      </trkpt>
      <trkpt lat="48.5385" lon="-3.3999">
        <ele>117</ele>
        <time>2023-10-30T17:06:07Z</time>
      </trkpt>
      <trkpt lat="48.53808" lon="-3.39991">
        <ele>120</ele>
        <time>2023-10-30T17:07:03Z</time>
      </trkpt>
      <trkpt lat="48.53777" lon="-3.4013">
        <ele>127</ele>
        <time>2023-10-30T17:09:13Z</time>
      </trkpt>
      <trkpt lat="48.53759" lon="-3.40137">
        <ele>130</ele>
        <time>2023-10-30T17:09:37Z</time>
      </trkpt>
      <trkpt lat="48.53724" lon="-3.40101">
        <ele>134</ele>
        <time>2023-10-30T17:10:34Z</time>
      </trkpt>
      <trkpt lat="48.5366" lon="-3.40193">
        <ele>141</ele>
        <time>2023-10-30T17:12:32Z</time>
      </trkpt>
      <trkpt lat="48.53588" lon="-3.40112">
        <ele>144</ele>
        <time>2023-10-30T17:14:32Z</time>
      </trkpt>
      <trkpt lat="48.53499" lon="-3.40246">
        <ele>150</ele>
        <time>2023-10-30T17:17:19Z</time>
      </trkpt>
      <trkpt lat="48.53458" lon="-3.40318">
        <ele>152</ele>
        <time>2023-10-30T17:18:43Z</time>
      </trkpt>
      <trkpt lat="48.53407" lon="-3.40376">
        <ele>155</ele>
        <time>2023-10-30T17:20:09Z</time>
      </trkpt>
      <trkpt lat="48.53391" lon="-3.40419">
        <ele>157</ele>
        <time>2023-10-30T17:20:52Z</time>
      </trkpt>
      <trkpt lat="48.53297" lon="-3.40608">
        <ele>165</ele>
        <time>2023-10-30T17:24:21Z</time>
      </trkpt>
      <trkpt lat="48.53278" lon="-3.40632">
        <ele>165</ele>
        <time>2023-10-30T17:24:54Z</time>
      </trkpt>
      <trkpt lat="48.53202" lon="-3.40801">
        <ele>171</ele>
        <time>2023-10-30T17:27:55Z</time>
      </trkpt>
      <trkpt lat="48.53187" lon="-3.40863">
        <ele>171</ele>
        <time>2023-10-30T17:28:53Z</time>
      </trkpt>
      <trkpt lat="48.53101" lon="-3.41101">
        <ele>170</ele>
        <time>2023-10-30T17:32:52Z</time>
      </trkpt>
      <trkpt lat="48.53093" lon="-3.4115">
        <ele>170</ele>
        <time>2023-10-30T17:33:37Z</time>
      </trkpt>
      <trkpt lat="48.53056" lon="-3.41216">
        <ele>170</ele>
        <time>2023-10-30T17:34:54Z</time>
      </trkpt>
      <trkpt lat="48.53058" lon="-3.41321">
        <ele>171</ele>
        <time>2023-10-30T17:36:26Z</time>
      </trkpt>
      <trkpt lat="48.53021" lon="-3.41545">
        <ele>172</ele>
        <time>2023-10-30T17:39:50Z</time>
      </trkpt>
      <trkpt lat="48.53007" lon="-3.41675">
        <ele>173</ele>
        <time>2023-10-30T17:41:47Z</time>
      </trkpt>
      <trkpt lat="48.52947" lon="-3.41686">
        <ele>173</ele>
        <time>2023-10-30T17:43:07Z</time>
      </trkpt>
      <trkpt lat="48.52847" lon="-3.41622">
        <ele>171</ele>
        <time>2023-10-30T17:45:32Z</time>
      </trkpt>
      <trkpt lat="48.52564" lon="-3.41525">
        <ele>159</ele>
        <time>2023-10-30T17:52:00Z</time>
      </trkpt>
      <trkpt lat="48.52578" lon="-3.41386">
        <ele>159</ele>
        <time>2023-10-30T17:54:04Z</time>
      </trkpt>
      <trkpt lat="48.52601" lon="-3.4131">
        <ele>160</ele>
        <time>2023-10-30T17:55:18Z</time>
      </trkpt>
      <trkpt lat="48.52618" lon="-3.41195">
        <ele>164</ele>
        <time>2023-10-30T17:57:02Z</time>
      </trkpt>
      <trkpt lat="48.52599" lon="-3.41133">
        <ele>163</ele>
        <time>2023-10-30T17:58:02Z</time>
      </trkpt>
      <trkpt lat="48.52502" lon="-3.41115">
        <ele>159</ele>
        <time>2023-10-30T18:00:13Z</time>
      </trkpt>
      <trkpt lat="48.52371" lon="-3.41065">
        <ele>155</ele>
        <time>2023-10-30T18:03:13Z</time>
      </trkpt>
      <trkpt lat="48.52282" lon="-3.40962">
        <ele>160</ele>
        <time>2023-10-30T18:05:43Z</time>
      </trkpt>
      <trkpt lat="48.5225" lon="-3.41011">
        <ele>158</ele>
        <time>2023-10-30T18:06:43Z</time>
      </trkpt>
      <trkpt lat="48.52196" lon="-3.40986">
        <ele>153</ele>
        <time>2023-10-30T18:07:59Z</time>
      </trkpt>
      <trkpt lat="48.52171" lon="-3.4081">
        <ele>158</ele>
        <time>2023-10-30T18:10:38Z</time>
      </trkpt>
      <trkpt lat="48.52173" lon="-3.40704">
        <ele>156</ele>
        <time>2023-10-30T18:12:12Z</time>
      </trkpt>
      <trkpt lat="48.52154" lon="-3.40394">
        <ele>131</ele>
        <time>2023-10-30T18:16:47Z</time>
      </trkpt>
      <trkpt lat="48.52209" lon="-3.40395">
        <ele>135</ele>
        <time>2023-10-30T18:18:00Z</time>
      </trkpt>
      <trkpt lat="48.52219" lon="-3.40359">
        <ele>133</ele>
        <time>2023-10-30T18:18:35Z</time>
      </trkpt>
      <trkpt lat="48.52171" lon="-3.40305">
        <ele>124</ele>
        <time>2023-10-30T18:19:55Z</time>
      </trkpt>
      <trkpt lat="48.52128" lon="-3.40154">
        <ele>112</ele>
        <time>2023-10-30T18:22:20Z</time>
      </trkpt>
      <trkpt lat="48.52093" lon="-3.40146">
        <ele>109</ele>
        <time>2023-10-30T18:23:07Z</time>
      </trkpt>
      <trkpt lat="48.51973" lon="-3.40237">
        <ele>110</ele>
        <time>2023-10-30T18:26:06Z</time>
      </trkpt>
      <trkpt lat="48.51913" lon="-3.40342">
        <ele>111</ele>
        <time>2023-10-30T18:28:09Z</time>
      </trkpt>
      <trkpt lat="48.5187" lon="-3.40428">
        <ele>114</ele>
        <time>2023-10-30T18:29:44Z</time>
      </trkpt>
      <trkpt lat="48.51863" lon="-3.40494">
        <ele>112</ele>
        <time>2023-10-30T18:30:43Z</time>
      </trkpt>
      <trkpt lat="48.51939" lon="-3.40657">
        <ele>116</ele>
        <time>2023-10-30T18:33:39Z</time>
      </trkpt>
      <trkpt lat="48.52004" lon="-3.40777">
        <ele>120</ele>
        <time>2023-10-30T18:35:56Z</time>
      </trkpt>
      <trkpt lat="48.52051" lon="-3.41214">
        <ele>115</ele>
        <time>2023-10-30T18:42:28Z</time>
      </trkpt>
      <trkpt lat="48.52056" lon="-3.41311">
        <ele>116</ele>
        <time>2023-10-30T18:43:54Z</time>
      </trkpt>
      <trkpt lat="48.52029" lon="-3.41497">
        <ele>116</ele>
        <time>2023-10-30T18:46:42Z</time>
      </trkpt>
      <trkpt lat="48.51987" lon="-3.41706">
        <ele>123</ele>
        <time>2023-10-30T18:49:55Z</time>
      </trkpt>
      <trkpt lat="48.51846" lon="-3.41859">
        <ele>117</ele>
        <time>2023-10-30T18:53:47Z</time>
      </trkpt>
      <trkpt lat="48.51786" lon="-3.4189">
        <ele>114</ele>
        <time>2023-10-30T18:55:11Z</time>
      </trkpt>
      <trkpt lat="48.51693" lon="-3.41821">
        <ele>109</ele>
        <time>2023-10-30T18:57:30Z</time>
      </trkpt>
      <trkpt lat="48.5161" lon="-3.41716">
        <ele>120</ele>
        <time>2023-10-30T18:59:54Z</time>
      </trkpt>
      <trkpt lat="48.51532" lon="-3.4164">
        <ele>120</ele>
        <time>2023-10-30T19:01:58Z</time>
      </trkpt>
      <trkpt lat="48.51422" lon="-3.41905">
        <ele>131</ele>
        <time>2023-10-30T19:06:35Z</time>
      </trkpt>
      <trkpt lat="48.51282" lon="-3.419">
        <ele>131</ele>
        <time>2023-10-30T19:09:41Z</time>
      </trkpt>
      <trkpt lat="48.51304" lon="-3.41778">
        <ele>124</ele>
        <time>2023-10-30T19:11:33Z</time>
      </trkpt>
      <trkpt lat="48.51326" lon="-3.41706">
        <ele>124</ele>
        <time>2023-10-30T19:12:43Z</time>
      </trkpt>
      <trkpt lat="48.514" lon="-3.41487">
        <ele>134</ele>
        <time>2023-10-30T19:16:21Z</time>
      </trkpt>
      <trkpt lat="48.51443" lon="-3.41303">
        <ele>139</ele>
        <time>2023-10-30T19:19:13Z</time>
      </trkpt>
      <trkpt lat="48.51415" lon="-3.41252">
        <ele>143</ele>
        <time>2023-10-30T19:20:12Z</time>
      </trkpt>
      <trkpt lat="48.51507" lon="-3.41089">
        <ele>144</ele>
        <time>2023-10-30T19:23:21Z</time>
      </trkpt>
      <trkpt lat="48.51547" lon="-3.40991">
        <ele>145</ele>
        <time>2023-10-30T19:25:03Z</time>
      </trkpt>
      <trkpt lat="48.51596" lon="-3.40913">
        <ele>144</ele>
        <time>2023-10-30T19:26:38Z</time>
      </trkpt>
      <trkpt lat="48.51647" lon="-3.40882">
        <ele>139</ele>
        <time>2023-10-30T19:27:51Z</time>
      </trkpt>
      <trkpt lat="48.51645" lon="-3.40855">
        <ele>140</ele>
        <time>2023-10-30T19:28:15Z</time>
      </trkpt>
      <trkpt lat="48.5165" lon="-3.40829">
        <ele>139</ele>
        <time>2023-10-30T19:28:39Z</time>
      </trkpt>
      <trkpt lat="48.51663" lon="-3.40816">
        <ele>138</ele>
        <time>2023-10-30T19:29:00Z</time>
      </trkpt>
      <trkpt lat="48.5166" lon="-3.40798">
        <ele>140</ele>
        <time>2023-10-30T19:29:16Z</time>
      </trkpt>
      <trkpt lat="48.51668" lon="-3.40766">
        <ele>141</ele>
        <time>2023-10-30T19:29:46Z</time>
      </trkpt>
      <trkpt lat="48.51653" lon="-3.4075">
        <ele>143</ele>
        <time>2023-10-30T19:30:11Z</time>
      </trkpt>
      <trkpt lat="48.51644" lon="-3.40713">
        <ele>147</ele>
        <time>2023-10-30T19:30:46Z</time>
      </trkpt>
      <trkpt lat="48.51662" lon="-3.4069">
        <ele>147</ele>
        <time>2023-10-30T19:31:17Z</time>
      </trkpt>
      <trkpt lat="48.5168" lon="-3.40647">
        <ele>147</ele>
        <time>2023-10-30T19:32:02Z</time>
      </trkpt>
      <trkpt lat="48.51719" lon="-3.40622">
        <ele>141</ele>
        <time>2023-10-30T19:32:59Z</time>
      </trkpt>
      <trkpt lat="48.51734" lon="-3.40541">
        <ele>143</ele>
        <time>2023-10-30T19:34:13Z</time>
      </trkpt>
      <trkpt lat="48.51738" lon="-3.40443">
        <ele>147</ele>
        <time>2023-10-30T19:35:40Z</time>
      </trkpt>
      <trkpt lat="48.51744" lon="-3.4038">
        <ele>148</ele>
        <time>2023-10-30T19:36:36Z</time>
      </trkpt>
      <trkpt lat="48.51807" lon="-3.40203">
        <ele>141</ele>
        <time>2023-10-30T19:39:34Z</time>
      </trkpt>
      <trkpt lat="48.51829" lon="-3.40155">
        <ele>140</ele>
        <time>2023-10-30T19:40:25Z</time>
      </trkpt>
      <trkpt lat="48.51825" lon="-3.40137">
        <ele>141</ele>
        <time>2023-10-30T19:40:42Z</time>
      </trkpt>
      <trkpt lat="48.51765" lon="-3.40075">
        <ele>153</ele>
        <time>2023-10-30T19:42:19Z</time>
      </trkpt>
      <trkpt lat="48.51741" lon="-3.40031">
        <ele>153</ele>
        <time>2023-10-30T19:43:10Z</time>
      </trkpt>
      <trkpt lat="48.5169" lon="-3.39984">
        <ele>159</ele>
        <time>2023-10-30T19:44:29Z</time>
      </trkpt>
      <trkpt lat="48.51629" lon="-3.39948">
        <ele>163</ele>
        <time>2023-10-30T19:45:57Z</time>
      </trkpt>
      <trkpt lat="48.51594" lon="-3.39931">
        <ele>165</ele>
        <time>2023-10-30T19:46:46Z</time>
      </trkpt>
      <trkpt lat="48.5158" lon="-3.39906">
        <ele>164</ele>
        <time>2023-10-30T19:47:15Z</time>
      </trkpt>
      <trkpt lat="48.51581" lon="-3.39872">
        <ele>165</ele>
        <time>2023-10-30T19:47:45Z</time>
      </trkpt>
      <trkpt lat="48.51599" lon="-3.39828">
        <ele>164</ele>
        <time>2023-10-30T19:48:31Z</time>
      </trkpt>
      <trkpt lat="48.51605" lon="-3.39786">
        <ele>165</ele>
        <time>2023-10-30T19:49:09Z</time>
      </trkpt>
      <trkpt lat="48.51601" lon="-3.39709">
        <ele>168</ele>
        <time>2023-10-30T19:50:17Z</time>
      </trkpt>
      <trkpt lat="48.51594" lon="-3.39674">
        <ele>169</ele>
        <time>2023-10-30T19:50:49Z</time>
      </trkpt>
      <trkpt lat="48.51589" lon="-3.39599">
        <ele>169</ele>
        <time>2023-10-30T19:51:56Z</time>
      </trkpt>
      <trkpt lat="48.51589" lon="-3.39544">
        <ele>170</ele>
        <time>2023-10-30T19:52:44Z</time>
      </trkpt>
      <trkpt lat="48.51605" lon="-3.39491">
        <ele>173</ele>
        <time>2023-10-30T19:53:36Z</time>
      </trkpt>
      <trkpt lat="48.51627" lon="-3.39412">
        <ele>176</ele>
        <time>2023-10-30T19:54:52Z</time>
      </trkpt>
      <trkpt lat="48.5163" lon="-3.39352">
        <ele>179</ele>
        <time>2023-10-30T19:55:45Z</time>
      </trkpt>
      <trkpt lat="48.51661" lon="-3.39343">
        <ele>181</ele>
        <time>2023-10-30T19:56:27Z</time>
      </trkpt>
      <trkpt lat="48.5169" lon="-3.39324">
        <ele>180</ele>
        <time>2023-10-30T19:57:09Z</time>
      </trkpt>
      <trkpt lat="48.51733" lon="-3.39265">
        <ele>182</ele>
        <time>2023-10-30T19:58:27Z</time>
      </trkpt>
      <trkpt lat="48.51743" lon="-3.39242">
        <ele>183</ele>
        <time>2023-10-30T19:58:51Z</time>
      </trkpt>
      <trkpt lat="48.51769" lon="-3.39206">
        <ele>183</ele>
        <time>2023-10-30T19:59:38Z</time>
      </trkpt>
      <trkpt lat="48.51818" lon="-3.39188">
        <ele>184</ele>
        <time>2023-10-30T20:00:45Z</time>
      </trkpt>
      <trkpt lat="48.51866" lon="-3.39181">
        <ele>184</ele>
        <time>2023-10-30T20:01:50Z</time>
      </trkpt>
      <trkpt lat="48.51967" lon="-3.39244">
        <ele>171</ele>
        <time>2023-10-30T20:04:16Z</time>
      </trkpt>
      <trkpt lat="48.52036" lon="-3.39321">
        <ele>158</ele>
        <time>2023-10-30T20:06:10Z</time>
      </trkpt>
      <trkpt lat="48.52098" lon="-3.39402">
        <ele>148</ele>
        <time>2023-10-30T20:07:59Z</time>
      </trkpt>
      <trkpt lat="48.52163" lon="-3.39478">
        <ele>137</ele>
        <time>2023-10-30T20:09:49Z</time>
      </trkpt>
      <trkpt lat="48.52227" lon="-3.39574">
        <ele>122</ele>
        <time>2023-10-30T20:11:50Z</time>
      </trkpt>
      <trkpt lat="48.52241" lon="-3.39471">
        <ele>117</ele>
        <time>2023-10-30T20:13:22Z</time>
      </trkpt>
      <trkpt lat="48.52269" lon="-3.39449">
        <ele>114</ele>
        <time>2023-10-30T20:14:05Z</time>
      </trkpt>
      <trkpt lat="48.52302" lon="-3.39445">
        <ele>113</ele>
        <time>2023-10-30T20:14:49Z</time>
      </trkpt>
      <trkpt lat="48.52336" lon="-3.39484">
        <ele>110</ele>
        <time>2023-10-30T20:15:46Z</time>
      </trkpt>
      <trkpt lat="48.52388" lon="-3.39571">
        <ele>110</ele>
        <time>2023-10-30T20:17:29Z</time>
      </trkpt>
      <trkpt lat="48.52413" lon="-3.39592">
        <ele>109</ele>
        <time>2023-10-30T20:18:08Z</time>
      </trkpt>
      <trkpt lat="48.5242" lon="-3.39324">
        <ele>135</ele>
        <time>2023-10-30T20:22:05Z</time>
      </trkpt>
      <trkpt lat="48.52404" lon="-3.39123">
        <ele>145</ele>
        <time>2023-10-30T20:25:03Z</time>
      </trkpt>
      <trkpt lat="48.52378" lon="-3.3903">
        <ele>150</ele>
        <time>2023-10-30T20:26:33Z</time>
      </trkpt>
      <trkpt lat="48.52431" lon="-3.38661">
        <ele>167</ele>
        <time>2023-10-30T20:32:06Z</time>
      </trkpt>
      <trkpt lat="48.52498" lon="-3.38617">
        <ele>165</ele>
        <time>2023-10-30T20:33:44Z</time>
      </trkpt>
      <trkpt lat="48.5252" lon="-3.38539">
        <ele>166</ele>
        <time>2023-10-30T20:34:59Z</time>
      </trkpt>
      <trkpt lat="48.52637" lon="-3.38602">
        <ele>155</ele>
        <time>2023-10-30T20:37:45Z</time>
      </trkpt>
      <trkpt lat="48.52679" lon="-3.3854">
        <ele>155</ele>
        <time>2023-10-30T20:39:03Z</time>
      </trkpt>
      <trkpt lat="48.52709" lon="-3.38547">
        <ele>154</ele>
        <time>2023-10-30T20:39:44Z</time>
      </trkpt>
      <trkpt lat="48.52733" lon="-3.38498">
        <ele>158</ele>
        <time>2023-10-30T20:40:37Z</time>
      </trkpt>
      <trkpt lat="48.52789" lon="-3.38469">
        <ele>160</ele>
        <time>2023-10-30T20:41:56Z</time>
      </trkpt>
      <trkpt lat="48.52832" lon="-3.38338">
        <ele>171</ele>
        <time>2023-10-30T20:44:06Z</time>
      </trkpt>
      <trkpt lat="48.52786" lon="-3.38302">
        <ele>170</ele>
        <time>2023-10-30T20:45:15Z</time>
      </trkpt>
      <trkpt lat="48.52827" lon="-3.38268">
        <ele>172</ele>
        <time>2023-10-30T20:46:17Z</time>
      </trkpt>
      <trkpt lat="48.52836" lon="-3.38202">
        <ele>175</ele>
        <time>2023-10-30T20:47:17Z</time>
      </trkpt>
      <trkpt lat="48.52981" lon="-3.38212">
        <ele>176</ele>
        <time>2023-10-30T20:50:30Z</time>
      </trkpt>
      <trkpt lat="48.53039" lon="-3.38048">
        <ele>176</ele>
        <time>2023-10-30T20:53:15Z</time>
      </trkpt>
      <trkpt lat="48.53217" lon="-3.38168">
        <ele>181</ele>
        <time>2023-10-30T20:57:35Z</time>
      </trkpt>
      <trkpt lat="48.53303" lon="-3.38058">
        <ele>173</ele>
        <time>2023-10-30T21:00:05Z</time>
      </trkpt>
      <trkpt lat="48.53332" lon="-3.38073">
        <ele>174</ele>
        <time>2023-10-30T21:00:46Z</time>
      </trkpt>
      <trkpt lat="48.53346" lon="-3.38044">
        <ele>171</ele>
        <time>2023-10-30T21:01:18Z</time>
      </trkpt>
      <trkpt lat="48.53411" lon="-3.38086">
        <ele>167</ele>
        <time>2023-10-30T21:02:52Z</time>
      </trkpt>
      <trkpt lat="48.53413" lon="-3.38184">
        <ele>167</ele>
        <time>2023-10-30T21:04:19Z</time>
      </trkpt>
      <trkpt lat="48.53478" lon="-3.3822">
        <ele>156</ele>
        <time>2023-10-30T21:05:51Z</time>
      </trkpt>
      <trkpt lat="48.53488" lon="-3.38389">
        <ele>152</ele>
        <time>2023-10-30T21:08:21Z</time>
      </trkpt>
      <trkpt lat="48.53612" lon="-3.38448">
        <ele>145</ele>
        <time>2023-10-30T21:11:15Z</time>
      </trkpt>
      <trkpt lat="48.53667" lon="-3.38515">
        <ele>146</ele>
        <time>2023-10-30T21:12:49Z</time>
      </trkpt>
      <trkpt lat="48.53771" lon="-3.38527">
        <ele>140</ele>
        <time>2023-10-30T21:15:08Z</time>
      </trkpt>
      <trkpt lat="48.53889" lon="-3.3842">
        <ele>132</ele>
        <time>2023-10-30T21:18:12Z</time>
      </trkpt>
      <trkpt lat="48.53991" lon="-3.38308">
        <ele>126</ele>
        <time>2023-10-30T21:21:00Z</time>
      </trkpt>
      <trkpt lat="48.5408" lon="-3.38361">
        <ele>113</ele>
        <time>2023-10-30T21:23:08Z</time>
      </trkpt>
      <trkpt lat="48.54101" lon="-3.38341">
        <ele>111</ele>
        <time>2023-10-30T21:23:41Z</time>
      </trkpt>
      <trkpt lat="48.54129" lon="-3.3824">
        <ele>107</ele>
        <time>2023-10-30T21:25:18Z</time>
      </trkpt>
      <trkpt lat="48.5413" lon="-3.383">
        <ele>107</ele>
        <time>2023-10-30T21:26:11Z</time>
      </trkpt>
      <trkpt lat="48.54065" lon="-3.38673">
        <ele>105</ele>
        <time>2023-10-30T21:31:51Z</time>
      </trkpt>
      <trkpt lat="48.54084" lon="-3.38883">
        <ele>111</ele>
        <time>2023-10-30T21:34:59Z</time>
      </trkpt>
      <trkpt lat="48.54144" lon="-3.39058">
        <ele>109</ele>
        <time>2023-10-30T21:37:53Z</time>
      </trkpt>
      <trkpt lat="48.54157" lon="-3.39221">
        <ele>108</ele>
        <time>2023-10-30T21:40:18Z</time>
      </trkpt>
      <trkpt lat="48.54183" lon="-3.3932">
        <ele>106</ele>
        <time>2023-10-30T21:41:52Z</time>
      </trkpt>
      <trkpt lat="48.54205" lon="-3.39454">
        <ele>106</ele>
        <time>2023-10-30T21:43:54Z</time>
      </trkpt>
      <trkpt lat="48.54267" lon="-3.39533">
        <ele>99</ele>
        <time>2023-10-30T21:45:42Z</time>
      </trkpt>
      <trkpt lat="48.54276" lon="-3.39574">
        <ele>99</ele>
        <time>2023-10-30T21:46:20Z</time>
      </trkpt>
      <trkpt lat="48.54375" lon="-3.39579">
        <ele>95</ele>
        <time>2023-10-30T21:48:33Z</time>
      </trkpt>
      <trkpt lat="48.54417" lon="-3.39603">
        <ele>94</ele>
        <time>2023-10-30T21:49:32Z</time>
      </trkpt>
      <trkpt lat="48.5446" lon="-3.39598">
        <ele>94</ele>
        <time>2023-10-30T21:50:30Z</time>
      </trkpt>
      <trkpt lat="48.54472" lon="-3.3957">
        <ele>94</ele>
        <time>2023-10-30T21:50:59Z</time>
      </trkpt>
      <trkpt lat="48.54516" lon="-3.39577">
        <ele>93</ele>
        <time>2023-10-30T21:51:59Z</time>
      </trkpt>
      <trkpt lat="48.54576" lon="-3.39568">
        <ele>91</ele>
        <time>2023-10-30T21:53:19Z</time>
      </trkpt>
      <trkpt lat="48.5461" lon="-3.39573">
        <ele>91</ele>
        <time>2023-10-30T21:54:05Z</time>
      </trkpt>
      <trkpt lat="48.54642" lon="-3.39664">
        <ele>90</ele>
        <time>2023-10-30T21:55:36Z</time>
      </trkpt>
      <trkpt lat="48.54652" lon="-3.39675">
        <ele>90</ele>
        <time>2023-10-30T21:55:52Z</time>
      </trkpt>
    </trkseg>
  </trk>
</gpx>